createdAt,value
2023-02-27T00:01:33.308Z,68.27
2023-02-27T00:04:35.858Z,68.72
2023-02-27T00:07:38.604Z,68.79
2023-02-27T00:10:41.466Z,68.80
2023-02-27T00:13:43.978Z,69.45
2023-02-27T00:16:46.523Z,69.66
2023-02-27T00:19:48.851Z,69.76
2023-02-27T00:22:52.001Z,70.27
2023-02-27T00:25:54.900Z,70.07
2023-02-27T00:28:57.936Z,70.59
2023-02-27T00:32:00.417Z,71.00
2023-02-27T00:35:06.781Z,71.99
2023-02-27T00:38:09.193Z,73.06
2023-02-27T00:41:11.754Z,73.81
2023-02-27T00:44:14.383Z,73.66
2023-02-27T00:47:16.903Z,73.39
2023-02-27T00:50:19.460Z,73.87
2023-02-27T00:53:23.059Z,73.89
2023-02-27T00:56:25.465Z,73.89
2023-02-27T00:59:28.094Z,73.89
2023-02-27T01:02:30.487Z,73.23
2023-02-27T01:05:33.219Z,73.00
2023-02-27T01:08:35.519Z,74.24
2023-02-27T01:11:40.228Z,73.60
2023-02-27T01:14:43.871Z,73.96
2023-02-27T01:17:50.324Z,74.30
2023-02-27T01:20:53.578Z,75.13
2023-02-27T01:23:56.125Z,75.35
2023-02-27T01:26:58.449Z,74.32
2023-02-27T01:30:01.192Z,73.97
2023-02-27T01:33:03.655Z,73.59
2023-02-27T01:36:06.943Z,72.72
2023-02-27T01:39:09.392Z,72.00
2023-02-27T01:42:23.726Z,71.83
2023-02-27T01:45:33.441Z,70.83
2023-02-27T01:48:38.745Z,70.76
2023-02-27T01:51:47.283Z,71.08
2023-02-27T01:54:49.947Z,70.36
2023-02-27T01:57:53.147Z,70.17
2023-02-27T02:00:55.980Z,70.10
2023-02-27T02:04:17.514Z,70.42
2023-02-27T02:07:21.164Z,69.93
2023-02-27T02:10:24.622Z,68.95
2023-02-27T02:13:27.666Z,68.99
2023-02-27T02:16:39.178Z,69.19
2023-02-27T02:20:00.615Z,69.36
2023-02-27T02:23:06.115Z,68.57
2023-02-27T02:26:31.082Z,68.51
2023-02-27T02:29:35.508Z,68.65
2023-02-27T02:32:40.813Z,67.59
2023-02-27T02:35:55.547Z,67.26
2023-02-27T02:39:19.474Z,67.74
2023-02-27T02:42:29.770Z,66.41
2023-02-27T02:45:35.491Z,67.00
2023-02-27T02:48:39.314Z,67.40
2023-02-27T02:51:47.870Z,67.29
2023-02-27T02:54:57.933Z,67.63
2023-02-27T02:58:00.624Z,67.17
2023-02-27T03:01:02.931Z,66.99
2023-02-27T03:04:12.843Z,66.89
2023-02-27T03:07:25.520Z,66.63
2023-02-27T03:10:35.076Z,65.98
2023-02-27T03:13:53.118Z,65.92
2023-02-27T03:16:59.282Z,65.80
2023-02-27T03:20:08.148Z,65.53
2023-02-27T03:23:13.865Z,65.64
2023-02-27T03:26:19.640Z,66.23
2023-02-27T03:29:30.246Z,65.87
2023-02-27T03:32:45.810Z,64.33
2023-02-27T03:35:58.265Z,64.33
2023-02-27T03:39:14.150Z,64.27
2023-02-27T03:42:35.295Z,64.13
2023-02-27T03:45:39.635Z,63.43
2023-02-27T03:48:44.724Z,63.23
2023-02-27T03:51:47.225Z,61.78
2023-02-27T03:55:00.008Z,62.44
2023-02-27T03:58:02.554Z,62.59
2023-02-27T04:01:05.294Z,62.42
2023-02-27T04:04:11.097Z,62.46
2023-02-27T04:07:24.270Z,62.24
2023-02-27T04:10:26.920Z,62.45
2023-02-27T04:13:29.257Z,61.99
2023-02-27T04:16:50.082Z,61.65
2023-02-27T04:19:52.375Z,61.56
2023-02-27T04:22:57.021Z,62.31
2023-02-27T04:26:17.984Z,61.10
2023-02-27T04:29:45.112Z,61.00
2023-02-27T04:32:56.668Z,61.31
2023-02-27T04:36:02.902Z,61.92
2023-02-27T04:39:11.649Z,61.07
2023-02-27T04:42:19.070Z,61.65
2023-02-27T04:45:23.050Z,61.48
2023-02-27T04:48:27.432Z,61.56
2023-02-27T04:51:36.050Z,61.81
2023-02-27T04:54:41.330Z,61.33
2023-02-27T04:57:52.747Z,61.19
2023-02-27T05:00:59.492Z,60.90
2023-02-27T05:04:03.164Z,60.97
2023-02-27T05:07:09.565Z,60.78
2023-02-27T05:10:18.315Z,61.06
2023-02-27T05:13:24.961Z,61.40
2023-02-27T05:16:28.013Z,60.32
2023-02-27T05:19:34.401Z,59.97
2023-02-27T05:23:09.426Z,59.74
2023-02-27T05:26:17.308Z,59.90
2023-02-27T05:29:19.578Z,59.85
2023-02-27T05:32:29.920Z,60.41
2023-02-27T05:35:32.217Z,60.06
2023-02-27T05:38:44.678Z,59.98
2023-02-27T05:41:49.763Z,60.45
2023-02-27T05:44:55.794Z,60.90
2023-02-27T05:48:00.466Z,61.04
2023-02-27T05:51:03.989Z,60.48
2023-02-27T05:54:26.643Z,60.40
2023-02-27T05:57:33.122Z,60.22
2023-02-27T06:00:51.509Z,60.44
2023-02-27T06:03:54.378Z,60.03
2023-02-27T06:06:57.330Z,60.08
2023-02-27T06:10:00.217Z,59.94
2023-02-27T06:13:02.514Z,59.58
2023-02-27T06:16:05.437Z,59.79
2023-02-27T06:19:07.757Z,59.44
2023-02-27T06:22:11.245Z,59.06
2023-02-27T06:25:13.765Z,58.67
2023-02-27T06:28:16.382Z,57.82
2023-02-27T06:31:18.999Z,58.10
2023-02-27T06:34:21.933Z,57.38
2023-02-27T06:37:24.368Z,57.90
2023-02-27T06:40:27.036Z,57.22
2023-02-27T06:43:30.205Z,56.28
2023-02-27T06:46:32.888Z,56.12
2023-02-27T06:49:35.378Z,55.62
2023-02-27T06:52:38.744Z,55.05
2023-02-27T06:55:42.126Z,54.11
2023-02-27T06:58:44.871Z,52.80
2023-02-27T07:01:48.312Z,52.42
2023-02-27T07:04:51.829Z,52.35
2023-02-27T07:07:54.203Z,52.58
2023-02-27T07:10:56.942Z,52.55
2023-02-27T07:13:59.430Z,51.29
2023-02-27T07:17:04.515Z,51.20
2023-02-27T07:20:08.191Z,51.35
2023-02-27T07:23:10.886Z,51.34
2023-02-27T07:26:13.432Z,50.81
2023-02-27T07:29:16.201Z,49.11
2023-02-27T07:32:18.651Z,47.28
2023-02-27T07:35:21.308Z,47.36
2023-02-27T07:38:24.144Z,48.16
2023-02-27T07:41:30.735Z,47.43
2023-02-27T07:44:34.933Z,47.47
2023-02-27T07:47:37.659Z,47.07
2023-02-27T07:50:40.013Z,46.57
2023-02-27T07:53:42.606Z,45.59
2023-02-27T07:56:44.997Z,45.21
2023-02-27T07:59:48.479Z,44.06
2023-02-27T08:02:51.034Z,43.60
2023-02-27T08:05:53.986Z,44.17
2023-02-27T08:08:56.343Z,45.57
2023-02-27T08:11:59.084Z,43.87
2023-02-27T08:15:01.595Z,43.40
2023-02-27T08:18:04.339Z,43.20
2023-02-27T08:21:06.791Z,43.47
2023-02-27T08:24:10.854Z,43.14
2023-02-27T08:27:13.274Z,43.62
2023-02-27T08:30:17.030Z,44.59
2023-02-27T08:33:19.877Z,44.49
2023-02-27T08:36:22.426Z,45.14
2023-02-27T08:39:24.746Z,44.59
2023-02-27T08:42:27.416Z,44.27
2023-02-27T08:45:29.771Z,44.45
2023-02-27T08:48:32.439Z,45.44
2023-02-27T08:51:34.850Z,44.22
2023-02-27T08:54:37.734Z,44.83
2023-02-27T08:57:40.138Z,44.90
2023-02-27T09:00:42.939Z,45.08
2023-02-27T09:03:45.903Z,44.52
2023-02-27T09:06:48.484Z,45.17
2023-02-27T09:09:51.131Z,44.60
2023-02-27T09:12:53.851Z,44.38
2023-02-27T09:15:56.435Z,44.27
2023-02-27T09:18:59.171Z,43.93
2023-02-27T09:22:01.775Z,43.08
2023-02-27T09:25:05.002Z,43.50
2023-02-27T09:28:07.323Z,43.19
2023-02-27T09:31:10.104Z,42.83
2023-02-27T09:34:12.869Z,43.26
2023-02-27T09:37:16.057Z,43.48
2023-02-27T09:40:29.355Z,43.76
2023-02-27T09:43:37.780Z,43.14
2023-02-27T09:46:40.139Z,42.90
2023-02-27T09:50:09.233Z,42.44
2023-02-27T09:53:19.078Z,42.67
2023-02-27T09:56:30.717Z,42.43
2023-02-27T09:59:53.097Z,41.71
2023-02-27T10:03:08.118Z,40.94
2023-02-27T10:06:19.455Z,41.24
2023-02-27T10:09:35.637Z,40.77
2023-02-27T10:12:57.183Z,40.20
2023-02-27T10:16:00.170Z,39.70
2023-02-27T10:19:04.809Z,39.60
2023-02-27T10:22:12.249Z,39.52
2023-02-27T10:25:30.796Z,39.82
2023-02-27T10:28:34.320Z,39.02
2023-02-27T10:31:37.427Z,38.93
2023-02-27T10:34:41.970Z,39.24
2023-02-27T10:37:49.589Z,38.91
2023-02-27T10:41:00.308Z,38.74
2023-02-27T10:44:03.034Z,38.54
2023-02-27T10:47:05.355Z,38.79
2023-02-27T10:50:27.205Z,38.22
2023-02-27T10:53:29.875Z,39.02
2023-02-27T10:56:32.471Z,39.00
2023-02-27T10:59:41.643Z,39.84
2023-02-27T11:02:48.864Z,40.01
2023-02-27T11:06:04.486Z,40.54
2023-02-27T11:09:19.562Z,40.59
2023-02-27T11:12:29.505Z,40.74
2023-02-27T11:15:33.582Z,39.93
2023-02-27T11:18:37.725Z,39.67
2023-02-27T11:21:40.377Z,39.08
2023-02-27T11:24:43.006Z,38.80
2023-02-27T11:27:46.614Z,39.16
2023-02-27T11:30:56.664Z,39.27
2023-02-27T11:34:01.062Z,39.03
2023-02-27T11:37:24.024Z,38.83
2023-02-27T11:40:32.846Z,39.85
2023-02-27T11:43:42.725Z,40.38
2023-02-27T11:46:48.527Z,40.23
2023-02-27T11:49:51.027Z,40.35
2023-02-27T11:52:58.697Z,40.81
2023-02-27T11:56:02.678Z,40.58
2023-02-27T11:59:12.384Z,40.76
2023-02-27T12:02:18.180Z,40.93
2023-02-27T12:05:24.639Z,40.53
2023-02-27T12:08:48.233Z,39.42
2023-02-27T12:11:51.302Z,39.27
2023-02-27T12:14:53.733Z,38.61
2023-02-27T12:18:11.587Z,39.12
2023-02-27T12:21:17.422Z,38.62
2023-02-27T12:28:43.526Z,37.86
2023-02-27T12:32:01.662Z,38.78
2023-02-27T12:35:16.474Z,38.66
2023-02-27T12:38:20.121Z,38.25
2023-02-27T12:41:41.719Z,38.68
2023-02-27T12:45:02.979Z,38.83
2023-02-27T12:48:13.611Z,39.21
2023-02-27T12:51:17.225Z,39.69
2023-02-27T12:54:20.038Z,39.54
2023-02-27T12:57:34.827Z,39.72
2023-02-27T13:00:46.265Z,38.96
2023-02-27T13:03:49.041Z,38.96
2023-02-27T13:06:57.731Z,39.33
2023-02-27T13:10:05.687Z,39.11
2023-02-27T13:13:14.182Z,39.88
2023-02-27T13:16:19.591Z,39.96
2023-02-27T13:19:48.425Z,39.85
2023-02-27T13:22:54.201Z,39.99
2023-02-27T13:25:58.668Z,40.96
2023-02-27T13:29:01.778Z,41.06
2023-02-27T13:32:13.771Z,41.62
2023-02-27T13:35:28.013Z,41.90
2023-02-27T13:38:32.434Z,42.36
2023-02-27T13:41:38.228Z,41.77
2023-02-27T13:44:43.318Z,41.79
2023-02-27T13:47:50.094Z,41.64
2023-02-27T13:50:52.984Z,41.69
2023-02-27T13:54:14.530Z,41.60
2023-02-27T13:57:18.900Z,42.28
2023-02-27T14:00:23.568Z,42.33
2023-02-27T14:03:30.124Z,42.33
2023-02-27T14:06:32.570Z,42.05
2023-02-27T14:09:40.034Z,42.21
2023-02-27T14:12:46.469Z,42.24
2023-02-27T14:15:51.575Z,42.04
2023-02-27T14:18:55.601Z,41.85
2023-02-27T14:22:04.204Z,41.66
2023-02-27T14:25:16.013Z,41.60
2023-02-27T14:28:37.516Z,41.52
2023-02-27T14:31:40.777Z,41.32
2023-02-27T14:34:43.607Z,41.43
2023-02-27T14:37:46.072Z,41.25
2023-02-27T14:40:59.865Z,41.47
2023-02-27T14:44:02.538Z,41.63
2023-02-27T14:47:05.609Z,42.12
2023-02-27T14:50:21.707Z,41.71
2023-02-27T14:53:25.899Z,41.53
2023-02-27T14:56:28.627Z,42.92
2023-02-27T14:59:41.565Z,42.76
2023-02-27T15:02:43.913Z,42.28
2023-02-27T15:05:47.321Z,42.53
2023-02-27T15:08:52.432Z,43.11
2023-02-27T15:12:03.850Z,43.39
2023-02-27T15:15:10.133Z,43.87
2023-02-27T15:18:13.765Z,43.75
2023-02-27T15:21:16.657Z,44.64
2023-02-27T15:24:40.579Z,44.96
2023-02-27T15:27:51.375Z,45.46
2023-02-27T15:30:55.063Z,45.45
2023-02-27T15:33:59.256Z,45.19
2023-02-27T15:37:02.559Z,45.79
2023-02-27T15:40:06.464Z,46.54
2023-02-27T15:43:09.539Z,46.05
2023-02-27T15:46:12.043Z,46.58
2023-02-27T15:49:19.593Z,47.24
2023-02-27T15:52:23.806Z,46.86
2023-02-27T15:55:28.820Z,47.78
2023-02-27T15:58:34.170Z,47.85
2023-02-27T16:01:37.100Z,48.48
2023-02-27T16:04:39.744Z,48.68
2023-02-27T16:11:04.528Z,49.00
2023-02-27T16:14:26.897Z,49.64
2023-02-27T16:17:31.610Z,49.97
2023-02-27T16:20:42.258Z,50.52
2023-02-27T16:23:48.653Z,50.27
2023-02-27T16:26:52.794Z,51.02
2023-02-27T16:29:56.779Z,51.60
2023-02-27T16:33:01.080Z,51.83
2023-02-27T16:36:16.213Z,52.24
2023-02-27T16:39:18.658Z,52.63
2023-02-27T16:42:21.375Z,53.14
2023-02-27T16:45:28.274Z,52.98
2023-02-27T16:48:31.030Z,53.03
2023-02-27T16:51:34.704Z,53.64
2023-02-27T16:54:37.307Z,54.42
2023-02-27T16:57:39.723Z,54.70
2023-02-27T17:00:42.619Z,55.97
2023-02-27T17:03:45.945Z,56.33
2023-02-27T17:06:48.708Z,56.82
2023-02-27T17:09:51.850Z,56.78
2023-02-27T17:12:54.604Z,57.27
2023-02-27T17:15:57.563Z,57.66
2023-02-27T17:19:00.283Z,58.42
2023-02-27T17:22:03.137Z,58.32
2023-02-27T17:25:06.563Z,58.79
2023-02-27T17:28:09.128Z,59.03
2023-02-27T17:31:14.189Z,57.73
2023-02-27T17:34:17.033Z,58.38
2023-02-27T17:37:19.782Z,58.75
2023-02-27T17:40:22.582Z,59.45
2023-02-27T17:43:25.223Z,59.36
2023-02-27T17:46:28.768Z,59.80
2023-02-27T17:49:31.783Z,59.74
2023-02-27T17:52:37.546Z,60.12
2023-02-27T17:55:40.481Z,60.47
2023-02-27T17:58:45.488Z,60.61
2023-02-27T18:01:48.270Z,60.82
2023-02-27T18:04:50.992Z,61.34
2023-02-27T18:07:55.379Z,61.87
2023-02-27T18:10:58.833Z,62.58
2023-02-27T18:14:01.289Z,63.28
2023-02-27T18:17:06.814Z,64.34
2023-02-27T18:20:10.113Z,65.35
2023-02-27T18:23:14.057Z,62.70
2023-02-27T18:26:32.413Z,61.19
2023-02-27T18:29:36.745Z,60.61
2023-02-27T18:32:39.263Z,60.54
2023-02-27T18:35:42.043Z,61.34
2023-02-27T18:38:45.531Z,61.42
2023-02-27T18:41:48.264Z,61.80
2023-02-27T18:44:50.603Z,62.00
2023-02-27T18:47:54.171Z,61.85
2023-02-27T18:51:04.836Z,61.93
2023-02-27T18:54:07.596Z,62.36
2023-02-27T18:57:10.386Z,62.79
2023-02-27T19:00:14.210Z,63.45
2023-02-27T19:03:16.729Z,63.81
2023-02-27T19:06:19.794Z,64.21
2023-02-27T19:09:22.468Z,63.52
2023-02-27T19:12:25.691Z,63.90
2023-02-27T19:15:28.093Z,64.25
2023-02-27T19:18:30.910Z,64.09
2023-02-27T19:21:33.928Z,64.35
2023-02-27T19:24:36.604Z,63.87
2023-02-27T19:27:40.351Z,63.57
2023-02-27T19:30:43.924Z,65.01
2023-02-27T19:33:46.244Z,64.19
2023-02-27T19:36:48.821Z,64.51
2023-02-27T19:39:51.808Z,64.68
2023-02-27T19:42:54.507Z,65.45
2023-02-27T19:45:58.083Z,66.16
2023-02-27T19:49:02.204Z,65.96
2023-02-27T19:52:05.050Z,66.34
2023-02-27T19:55:08.062Z,68.16
2023-02-27T19:58:10.396Z,67.43
2023-02-27T20:01:13.045Z,67.39
2023-02-27T20:04:17.674Z,67.85
2023-02-27T20:07:20.101Z,67.40
2023-02-27T20:10:23.303Z,66.62
2023-02-27T20:13:26.657Z,66.50
2023-02-27T20:16:34.458Z,66.04
2023-02-27T20:19:36.890Z,65.43
2023-02-27T20:22:41.820Z,65.35
2023-02-27T20:25:44.167Z,64.50
2023-02-27T20:28:47.706Z,64.19
2023-02-27T20:31:52.705Z,64.50
2023-02-27T20:34:56.764Z,64.67
2023-02-27T20:37:59.329Z,64.37
2023-02-27T20:41:02.005Z,64.39
2023-02-27T20:44:05.222Z,63.85
2023-02-27T20:47:09.086Z,63.27
2023-02-27T20:50:12.282Z,64.48
2023-02-27T20:53:14.983Z,64.58
2023-02-27T20:56:21.408Z,64.13
2023-02-27T20:59:25.498Z,64.32
2023-02-27T21:02:27.838Z,64.43
2023-02-27T21:05:31.220Z,64.64
2023-02-27T21:08:37.616Z,65.52
2023-02-27T21:11:40.734Z,66.24
2023-02-27T21:14:44.521Z,67.59
2023-02-27T21:17:47.310Z,68.34
2023-02-27T21:20:49.731Z,68.95
2023-02-27T21:24:06.126Z,69.61
2023-02-27T21:27:08.519Z,69.96
2023-02-27T21:30:12.156Z,70.12
2023-02-27T21:33:15.955Z,70.49
2023-02-27T21:36:23.780Z,70.87
2023-02-27T21:39:28.119Z,71.93
2023-02-27T21:42:31.286Z,71.78
2023-02-27T21:45:35.611Z,71.98
2023-02-27T21:48:38.614Z,71.52
2023-02-27T21:51:41.417Z,71.18
2023-02-27T21:54:44.478Z,71.17
2023-02-27T21:57:46.827Z,71.61
2023-02-27T22:00:50.625Z,71.07
2023-02-27T22:03:53.846Z,71.69
2023-02-27T22:06:56.106Z,71.85
2023-02-27T22:09:58.937Z,73.15
2023-02-27T22:13:01.349Z,73.04
2023-02-27T22:16:07.767Z,72.35
2023-02-27T22:19:15.481Z,71.93
2023-02-27T22:22:18.119Z,72.18
2023-02-27T22:25:20.670Z,72.87
2023-02-27T22:28:23.342Z,72.65
2023-02-27T22:31:30.234Z,72.66
2023-02-27T22:34:33.126Z,73.17
2023-02-27T22:37:35.489Z,74.18
2023-02-27T22:40:38.273Z,74.42
2023-02-27T22:43:41.147Z,74.27
2023-02-27T22:46:47.953Z,73.55
2023-02-27T22:49:51.175Z,73.70
2023-02-27T22:52:53.764Z,74.04
2023-02-27T22:55:56.324Z,74.27
2023-02-27T22:58:59.436Z,74.73
2023-02-27T23:02:02.043Z,74.68
2023-02-27T23:05:04.771Z,74.22
2023-02-27T23:08:07.122Z,73.61
2023-02-27T23:11:10.745Z,73.73
2023-02-27T23:14:14.293Z,73.68
2023-02-27T23:17:16.973Z,73.52
2023-02-27T23:20:19.262Z,73.07
2023-02-27T23:23:22.875Z,73.36
2023-02-27T23:26:28.501Z,73.24
2023-02-27T23:29:31.226Z,74.10
2023-02-27T23:32:43.195Z,74.20
2023-02-27T23:35:45.861Z,73.54
2023-02-27T23:38:48.577Z,73.40
2023-02-27T23:41:51.546Z,73.54
2023-02-27T23:45:32.645Z,74.15
2023-02-27T23:48:35.718Z,74.72
2023-02-27T23:51:38.166Z,75.38
2023-02-27T23:54:40.956Z,76.04
2023-02-27T23:57:43.587Z,75.94
